createdAt,value
2022-11-21T00:01:45.988Z,11744.5
2022-11-21T00:03:43.145Z,11744.5
2022-11-21T00:05:44.085Z,11744.5
2022-11-21T00:07:44.193Z,11744.5
2022-11-21T00:09:43.271Z,11744.5
2022-11-21T00:11:43.838Z,11744.5
2022-11-21T00:13:43.074Z,11744.5
2022-11-21T00:15:44.084Z,11744.5
2022-11-21T00:17:44.007Z,11744.5
2022-11-21T00:19:43.521Z,11744.5
2022-11-21T00:21:43.004Z,11744.5
2022-11-21T00:23:43.007Z,11744.5
2022-11-21T00:25:47.927Z,11744.5
2022-11-21T00:27:43.119Z,11744.5
2022-11-21T00:29:43.703Z,11744.5
2022-11-21T00:31:43.070Z,11744.5
2022-11-21T00:33:43.415Z,11744.5
2022-11-21T00:35:43.133Z,11744.5
2022-11-21T00:37:43.473Z,11744.5
2022-11-21T00:39:42.900Z,11744.5
2022-11-21T00:41:43.338Z,11744.5
2022-11-21T00:43:42.668Z,11744.5
2022-11-21T00:45:47.155Z,11744.5
2022-11-21T00:47:42.906Z,11744.5
2022-11-21T00:49:43.469Z,11744.5
2022-11-21T00:51:42.707Z,11744.5
2022-11-21T00:53:43.110Z,11744.5
2022-11-21T00:55:42.940Z,11744.5
2022-11-21T00:57:43.051Z,11744.5
2022-11-21T00:59:43.526Z,11744.5
2022-11-21T01:01:46.558Z,11744.5
2022-11-21T01:03:42.928Z,11744.5
2022-11-21T01:05:43.931Z,11744.5
2022-11-21T01:07:43.338Z,11744.5
2022-11-21T01:09:43.290Z,11744.5
2022-11-21T01:11:42.675Z,11744.5
2022-11-21T01:13:44.951Z,11744.5
2022-11-21T01:15:42.995Z,11744.5
2022-11-21T01:17:43.229Z,11744.5
2022-11-21T01:19:42.664Z,11744.5
2022-11-21T01:21:43.163Z,11744.5
2022-11-21T01:23:42.702Z,11744.5
2022-11-21T01:25:43.640Z,11744.5
2022-11-21T01:27:42.480Z,11744.5
2022-11-21T01:29:42.891Z,11744.5
2022-11-21T01:31:43.474Z,11744.5
2022-11-21T01:33:42.971Z,11744.5
2022-11-21T01:35:43.928Z,11744.5
2022-11-21T01:37:42.747Z,11744.5
2022-11-21T01:39:43.243Z,11744.5
2022-11-21T01:41:42.972Z,11744.5
2022-11-21T01:43:43.548Z,11744.5
2022-11-21T01:45:42.993Z,11744.5
2022-11-21T01:47:43.252Z,11744.5
2022-11-21T01:49:42.866Z,11744.5
2022-11-21T01:51:43.613Z,11744.5
2022-11-21T01:53:43.018Z,11744.5
2022-11-21T01:55:43.413Z,11744.5
2022-11-21T01:57:42.607Z,11744.5
2022-11-21T01:59:43.350Z,11744.5
2022-11-21T02:01:48.859Z,11744.5
2022-11-21T02:03:43.053Z,11744.5
2022-11-21T02:05:43.969Z,11744.5
2022-11-21T02:07:43.256Z,11744.5
2022-11-21T02:09:42.604Z,11744.5
2022-11-21T02:11:43.079Z,11744.5
2022-11-21T02:13:43.481Z,11744.5
2022-11-21T02:15:42.902Z,11744.5
2022-11-21T02:17:43.427Z,11744.5
2022-11-21T02:19:42.781Z,11744.5
2022-11-21T02:21:43.119Z,11744.5
2022-11-21T02:23:43.501Z,11744.5
2022-11-21T02:25:42.807Z,11744.5
2022-11-21T02:27:43.302Z,11744.5
2022-11-21T02:29:42.856Z,11744.5
2022-11-21T02:31:43.045Z,11744.5
2022-11-21T02:33:42.434Z,11744.5
2022-11-21T02:35:42.964Z,11744.5
2022-11-21T02:37:43.557Z,11744.5
2022-11-21T02:39:43.062Z,11744.5
2022-11-21T02:41:43.296Z,11744.5
2022-11-21T02:43:48.813Z,11744.5
2022-11-21T02:45:43.384Z,11744.5
2022-11-21T02:47:42.557Z,11744.5
2022-11-21T02:49:45.793Z,11744.5
2022-11-21T02:51:43.265Z,11744.5
2022-11-21T02:53:42.820Z,11744.5
2022-11-21T02:55:43.891Z,11744.5
2022-11-21T02:57:44.139Z,11744.5
2022-11-21T02:59:46.917Z,11744.5
2022-11-21T03:01:45.889Z,11744.5
2022-11-21T03:03:43.615Z,11744.5
2022-11-21T03:05:43.197Z,11744.5
2022-11-21T03:07:43.638Z,11744.5
2022-11-21T03:09:42.739Z,11744.5
2022-11-21T03:11:43.331Z,11744.5
2022-11-21T03:13:42.737Z,11744.5
2022-11-21T03:15:43.372Z,11744.5
2022-11-21T03:17:43.494Z,11744.5
2022-11-21T03:19:42.802Z,11744.5
2022-11-21T03:21:43.463Z,11744.5
2022-11-21T03:23:42.989Z,11744.5
2022-11-21T03:25:43.917Z,11744.5
2022-11-21T03:27:42.671Z,11744.5
2022-11-21T03:29:43.229Z,11744.5
2022-11-21T03:31:42.886Z,11744.5
2022-11-21T03:33:43.266Z,11744.5
2022-11-21T03:35:42.576Z,11744.5
2022-11-21T03:37:42.922Z,11744.5
2022-11-21T03:39:43.636Z,11744.5
2022-11-21T03:41:43.234Z,11744.5
2022-11-21T03:43:43.555Z,11744.5
2022-11-21T03:45:42.894Z,11744.5
2022-11-21T03:47:43.412Z,11744.5
2022-11-21T03:49:42.998Z,11744.5
2022-11-21T03:51:43.514Z,11744.5
2022-11-21T03:53:42.894Z,11744.5
2022-11-21T03:55:43.272Z,11744.5
2022-11-21T03:57:42.970Z,11744.5
2022-11-21T03:59:43.391Z,11744.5
2022-11-21T04:01:48.239Z,11744.5
2022-11-21T04:03:43.684Z,11744.5
2022-11-21T04:05:43.048Z,11744.5
2022-11-21T04:07:42.808Z,11744.5
2022-11-21T04:09:43.208Z,11744.5
2022-11-21T04:11:42.921Z,11744.5
2022-11-21T04:13:48.944Z,11744.5
2022-11-21T04:15:47.733Z,11744.5
2022-11-21T04:17:42.998Z,11744.5
2022-11-21T04:19:42.640Z,11744.5
2022-11-21T04:21:42.967Z,11744.5
2022-11-21T04:23:42.430Z,11744.5
2022-11-21T04:25:42.912Z,11744.5
2022-11-21T04:27:43.481Z,11744.5
2022-11-21T04:29:42.902Z,11744.5
2022-11-21T04:31:45.854Z,11744.5
2022-11-21T04:33:42.792Z,11744.5
2022-11-21T04:35:43.428Z,11744.5
2022-11-21T04:37:45.883Z,11744.5
2022-11-21T04:39:43.545Z,11744.5
2022-11-21T04:41:42.776Z,11744.5
2022-11-21T04:43:43.437Z,11744.5
2022-11-21T04:45:42.928Z,11744.5
2022-11-21T04:47:50.313Z,11744.5
2022-11-21T04:49:42.868Z,11744.5
2022-11-21T04:51:43.345Z,11744.5
2022-11-21T04:53:43.309Z,11744.5
2022-11-21T04:55:43.497Z,11744.5
2022-11-21T04:57:42.757Z,11744.5
2022-11-21T04:59:43.156Z,11744.5
2022-11-21T05:01:54.799Z,11744.5
2022-11-21T05:03:43.229Z,11744.5
2022-11-21T05:05:43.688Z,11744.5
2022-11-21T05:07:43.020Z,11744.5
2022-11-21T05:09:49.052Z,11744.5
2022-11-21T05:11:42.741Z,11744.5
2022-11-21T05:13:43.569Z,11744.5
2022-11-21T05:15:47.474Z,11744.5
2022-11-21T05:17:43.209Z,11744.5
2022-11-21T05:19:42.566Z,11744.5
2022-11-21T05:21:44.660Z,11744.5
2022-11-21T05:23:43.035Z,11744.5
2022-11-21T05:25:43.255Z,11744.5
2022-11-21T05:27:42.665Z,11744.5
2022-11-21T05:29:50.339Z,11744.5
2022-11-21T05:31:42.838Z,11744.5
2022-11-21T05:33:43.286Z,11744.5
2022-11-21T05:35:43.392Z,11744.5
2022-11-21T05:37:42.822Z,11744.5
2022-11-21T05:39:43.425Z,11744.5
2022-11-21T05:41:43.002Z,11744.5
2022-11-21T05:43:44.842Z,11744.5
2022-11-21T05:45:42.607Z,11744.5
2022-11-21T05:47:43.035Z,11744.5
2022-11-21T05:49:42.795Z,11744.5
2022-11-21T05:51:43.270Z,11744.5
2022-11-21T05:53:43.415Z,11744.5
2022-11-21T05:55:42.875Z,11744.5
2022-11-21T05:57:43.316Z,11744.5
2022-11-21T05:59:43.971Z,11744.5
2022-11-21T06:01:45.987Z,11744.5
2022-11-21T06:03:44.271Z,11744.5
2022-11-21T06:05:43.237Z,11744.5
2022-11-21T06:07:44.744Z,11744.5
2022-11-21T06:09:43.418Z,11744.5
2022-11-21T06:11:42.863Z,11744.5
2022-11-21T06:13:45.069Z,11744.5
2022-11-21T06:15:43.924Z,11744.5
2022-11-21T06:17:43.270Z,11744.5
2022-11-21T06:19:44.403Z,11744.5
2022-11-21T06:21:42.668Z,11744.5
2022-11-21T06:23:42.958Z,11744.5
2022-11-21T06:25:42.629Z,11744.5
2022-11-21T06:27:43.177Z,11744.5
2022-11-21T06:29:43.425Z,11744.5
2022-11-21T06:31:49.065Z,11744.5
2022-11-21T06:33:43.899Z,11744.5
2022-11-21T06:35:42.971Z,11744.5
2022-11-21T06:37:43.470Z,11744.5
2022-11-21T06:39:42.622Z,11744.5
2022-11-21T06:41:43.180Z,11744.5
2022-11-21T06:43:42.857Z,11744.5
2022-11-21T06:45:43.407Z,11744.5
2022-11-21T06:47:47.716Z,11744.5
2022-11-21T06:49:43.061Z,11744.5
2022-11-21T06:51:42.785Z,11744.5
2022-11-21T06:53:43.512Z,11744.5
2022-11-21T06:55:46.993Z,11744.5
2022-11-21T06:57:43.128Z,11744.5
2022-11-21T06:59:42.636Z,11744.5
2022-11-21T07:01:46.554Z,11744.5
2022-11-21T07:03:48.297Z,11744.5
2022-11-21T07:05:43.829Z,11744.5
2022-11-21T07:07:43.336Z,11744.5
2022-11-21T07:10:18.556Z,11744.5
2022-11-21T07:12:19.187Z,11744.5
2022-11-21T07:13:43.267Z,11744.5
2022-11-21T07:15:50.265Z,11744.5
2022-11-21T07:17:42.765Z,11744.5
2022-11-21T07:19:43.376Z,11744.5
2022-11-21T07:21:42.838Z,11744.5
2022-11-21T07:23:43.281Z,11744.5
2022-11-21T07:25:47.925Z,11744.5
2022-11-21T07:27:43.087Z,11744.5
2022-11-21T07:29:43.451Z,11744.5
2022-11-21T07:31:48.070Z,11744.5
2022-11-21T07:33:43.347Z,11744.5
2022-11-21T07:35:42.589Z,11744.5
2022-11-21T07:37:43.291Z,11744.5
2022-11-21T07:39:42.749Z,11744.5
2022-11-21T07:41:43.050Z,11744.5
2022-11-21T07:43:44.890Z,11744.5
2022-11-21T07:45:42.741Z,11744.5
2022-11-21T07:47:43.501Z,11744.5
2022-11-21T07:49:49.333Z,11744.5
2022-11-21T07:51:43.120Z,11744.5
2022-11-21T07:53:42.584Z,11744.5
2022-11-21T07:55:50.495Z,11744.5
2022-11-21T07:57:43.514Z,11744.5
2022-11-21T07:59:42.856Z,11744.5
2022-11-21T08:01:46.326Z,11744.5
2022-11-21T08:03:43.358Z,11744.5
2022-11-21T08:05:43.467Z,11744.5
2022-11-21T08:07:43.549Z,11744.5
2022-11-21T08:09:47.278Z,11744.5
2022-11-21T08:11:42.872Z,11744.5
2022-11-21T08:13:43.315Z,11744.5
2022-11-21T08:15:42.989Z,11744.5
2022-11-21T08:17:43.345Z,11744.5
2022-11-21T08:19:42.883Z,11744.5
2022-11-21T08:21:43.286Z,11744.5
2022-11-21T08:23:43.052Z,11744.5
2022-11-21T08:25:43.257Z,11744.5
2022-11-21T08:27:42.629Z,11744.5
2022-11-21T08:29:45.269Z,11744.5
2022-11-21T08:31:43.670Z,11744.5
2022-11-21T08:33:43.023Z,11744.5
2022-11-21T08:35:44.852Z,11744.5
2022-11-21T08:37:42.601Z,11744.5
2022-11-21T08:39:43.188Z,11744.5
2022-11-21T08:41:50.020Z,11744.5
2022-11-21T08:43:43.262Z,11744.5
2022-11-21T08:45:44.305Z,11744.5
2022-11-21T08:47:43.153Z,11744.5
2022-11-21T08:49:43.644Z,11744.5
2022-11-21T08:51:50.355Z,11744.5
2022-11-21T08:53:43.184Z,11744.5
2022-11-21T08:55:42.625Z,11744.5
2022-11-21T08:57:46.109Z,11744.5
2022-11-21T08:59:43.558Z,11744.5
2022-11-21T09:01:45.633Z,11744.5
2022-11-21T09:03:48.025Z,11744.5
2022-11-21T09:05:43.445Z,11744.5
2022-11-21T09:07:45.039Z,11744.5
2022-11-21T09:09:48.208Z,11744.5
2022-11-21T09:11:44.260Z,11744.5
2022-11-21T09:13:43.310Z,11744.5
2022-11-21T09:15:42.653Z,11744.5
2022-11-21T09:17:57.111Z,11744.5
2022-11-21T09:19:43.545Z,11744.5
2022-11-21T09:21:44.163Z,11744.5
2022-11-21T09:23:43.479Z,11744.5
2022-11-21T09:25:43.443Z,11744.5
2022-11-21T09:27:43.354Z,11744.5
2022-11-21T09:29:46.865Z,11744.5
2022-11-21T09:31:44.286Z,11744.5
2022-11-21T09:33:42.898Z,11744.5
2022-11-21T09:35:43.255Z,11744.5
2022-11-21T09:37:43.373Z,11744.5
2022-11-21T09:39:43.411Z,11744.5
2022-11-21T09:41:42.957Z,11744.5
2022-11-21T09:43:43.257Z,11744.5
2022-11-21T09:45:43.764Z,11744.5
2022-11-21T09:47:43.342Z,11744.5
2022-11-21T09:49:42.731Z,11744.5
2022-11-21T09:51:50.401Z,11744.5
2022-11-21T09:53:43.566Z,11744.5
2022-11-21T09:55:44.496Z,11744.5
2022-11-21T09:57:47.091Z,11744.5
2022-11-21T09:59:43.409Z,11744.5
2022-11-21T10:01:47.647Z,11744.5
2022-11-21T10:03:45.256Z,11744.5
2022-11-21T10:05:43.571Z,11744.5
2022-11-21T10:07:44.016Z,11744.5
2022-11-21T10:09:44.512Z,11744.5
2022-11-21T10:11:51.801Z,11744.5
2022-11-21T10:13:43.325Z,11744.5
2022-11-21T10:15:44.468Z,11744.5
2022-11-21T10:17:49.240Z,11744.5
2022-11-21T10:19:43.576Z,11744.5
2022-11-21T10:21:44.162Z,11744.5
2022-11-21T10:23:43.475Z,11744.5
2022-11-21T10:25:49.293Z,11744.5
2022-11-21T10:27:43.481Z,239.85
2022-11-21T10:29:42.886Z,182.4
2022-11-21T10:31:43.268Z,182.4
2022-11-21T10:33:42.390Z,25.74
2022-11-21T10:35:42.903Z,7903.12
2022-11-21T10:37:45.795Z,7903.12
2022-11-21T10:39:42.863Z,8.89
2022-11-21T10:41:43.340Z,3050.09
2022-11-21T10:43:44.951Z,3050.09
2022-11-21T10:45:43.308Z,5.3
2022-11-21T10:47:42.668Z,5.03
2022-11-21T10:49:49.608Z,5.03
2022-11-21T10:51:43.267Z,3.86
2022-11-21T10:53:42.758Z,1395.33
2022-11-21T10:55:49.701Z,1395.33
2022-11-21T10:57:42.801Z,1178.75
2022-11-21T10:59:52.523Z,1151.94
2022-11-21T11:01:46.222Z,1151.94
2022-11-21T11:03:48.328Z,988.62
2022-11-21T11:06:22.105Z,976.82
2022-11-21T11:07:43.005Z,976.82
2022-11-21T11:09:42.993Z,2.43
2022-11-21T11:11:48.191Z,2.4
2022-11-21T11:14:18.087Z,2.4
2022-11-21T11:15:43.265Z,2.2
2022-11-21T11:17:49.037Z,2.17
2022-11-21T11:20:01.125Z,2.17
2022-11-21T11:21:43.428Z,2.03
2022-11-21T11:23:44.466Z,2.01
2022-11-21T11:25:46.327Z,2.01
2022-11-21T11:27:42.680Z,1.91
2022-11-21T11:29:44.308Z,695.47
2022-11-21T11:31:44.413Z,695.47
2022-11-21T11:33:50.874Z,1.83
2022-11-21T11:35:43.386Z,677.29
2022-11-21T11:37:51.192Z,677.29
2022-11-21T11:39:44.302Z,659.47
2022-11-21T11:41:43.081Z,659.47
2022-11-21T11:43:47.273Z,659.47
2022-11-21T11:45:43.332Z,641.97
2022-11-21T11:47:43.387Z,1.74
2022-11-21T11:50:18.105Z,1.74
2022-11-21T11:51:43.389Z,1.67
2022-11-21T11:53:43.800Z,1.67
2022-11-21T11:55:43.381Z,1.67
2022-11-21T11:57:43.751Z,1.62
2022-11-21T11:59:43.225Z,1.6
2022-11-21T12:01:46.452Z,1.6
2022-11-21T12:03:43.667Z,575.29
2022-11-21T12:05:43.597Z,1.56
2022-11-21T12:09:48.993Z,1.49
2022-11-21T12:10:14.672Z,1.49
2022-11-21T12:13:43.075Z,1.49
2022-11-21T12:17:54.741Z,1.45
2022-11-21T12:21:46.104Z,1.43
2022-11-21T12:25:50.151Z,1.43
2022-11-21T12:29:43.626Z,1.41
2022-11-21T12:33:50.205Z,521.07
2022-11-21T12:37:58.843Z,521.07
2022-11-21T12:41:44.302Z,521.07
2022-11-21T12:45:43.696Z,1.39
2022-11-21T12:49:43.588Z,513.63
2022-11-21T12:53:43.401Z,506.27
2022-11-21T12:57:42.872Z,1.35
2022-11-21T13:01:52.153Z,1.35
2022-11-21T13:05:43.487Z,491.76
2022-11-21T13:09:44.106Z,1.31
2022-11-21T13:13:42.606Z,1.31
2022-11-21T13:17:44.788Z,1.29
2022-11-21T13:21:51.696Z,463.6
2022-11-21T13:25:43.655Z,1.25
2022-11-21T13:29:43.196Z,1.25
2022-11-21T13:33:43.649Z,1.2
2022-11-21T13:37:42.816Z,1.2
2022-11-21T13:41:44.068Z,1.2
2022-11-21T13:45:43.320Z,1.2
2022-11-21T13:49:43.501Z,1.2
2022-11-21T13:53:43.574Z,1.2
2022-11-21T13:57:43.491Z,1.2
2022-11-21T14:01:51.081Z,1.2
2022-11-21T14:05:43.387Z,1.2
2022-11-21T14:09:44.356Z,1.2
2022-11-21T14:13:52.629Z,1.2
2022-11-21T14:17:43.606Z,1.2
2022-11-21T14:21:43.475Z,1.2
2022-11-21T14:25:43.550Z,1.2
2022-11-21T14:29:43.571Z,1.2
2022-11-21T14:33:50.534Z,1.2
2022-11-21T14:37:44.202Z,1.2
2022-11-21T14:41:43.258Z,1.2
2022-11-21T14:45:43.114Z,1.2
2022-11-21T14:49:43.551Z,1.2
2022-11-21T14:53:43.370Z,1.2
2022-11-21T14:57:43.432Z,1.2
2022-11-21T15:02:32.675Z,1.2
2022-11-21T15:06:23.079Z,1.2
2022-11-21T15:11:58.618Z,1.2
2022-11-21T15:15:58.620Z,1.2
2022-11-21T15:20:11.578Z,1.2
2022-11-21T15:23:44.556Z,1.2
2022-11-21T15:27:43.777Z,1.2
2022-11-21T15:31:46.259Z,1.2
2022-11-21T15:36:17.498Z,1.2
2022-11-21T15:39:43.237Z,1.2
2022-11-21T15:43:43.227Z,1.2
2022-11-21T15:47:43.689Z,1.2
2022-11-21T15:52:23.116Z,1.2
2022-11-21T15:55:43.761Z,1.2
2022-11-21T15:57:27.334Z,1.2
2022-11-21T15:59:47.719Z,1.2
2022-11-21T16:03:43.944Z,1.2
2022-11-21T16:07:43.751Z,1.2
2022-11-21T16:11:54.339Z,1.2
2022-11-21T16:15:43.324Z,1.2
2022-11-21T16:19:43.609Z,1.2
2022-11-21T16:23:44.494Z,1.2
2022-11-21T16:27:43.502Z,1.2
2022-11-21T16:31:43.037Z,1.2
2022-11-21T16:35:43.385Z,1.2
2022-11-21T16:39:53.233Z,1.2
2022-11-21T16:43:43.492Z,1.2
2022-11-21T16:47:54.290Z,1.2
2022-11-21T16:51:43.949Z,1.2
2022-11-21T16:55:50.315Z,1.2
2022-11-21T16:59:43.541Z,1.2
2022-11-21T17:03:43.484Z,1.2
2022-11-21T17:07:43.953Z,1.2
2022-11-21T17:11:43.380Z,1.2
2022-11-21T17:15:43.069Z,1.2
2022-11-21T17:19:43.004Z,1.2
2022-11-21T17:23:43.761Z,1.2
2022-11-21T17:27:43.386Z,1.2
2022-11-21T17:31:43.434Z,1.2
2022-11-21T17:35:51.348Z,1.2
2022-11-21T17:39:51.915Z,1.2
2022-11-21T17:43:43.502Z,1.2
2022-11-21T17:47:50.647Z,1.2
2022-11-21T17:51:51.381Z,1.2
2022-11-21T17:55:43.607Z,1.2
2022-11-21T17:59:43.591Z,1.2
2022-11-21T18:03:44.778Z,1.2
2022-11-21T18:07:43.917Z,1.2
2022-11-21T18:12:24.917Z,1.2
2022-11-21T18:15:43.007Z,1.2
2022-11-21T18:19:42.657Z,1.2
2022-11-21T18:23:48.419Z,1.2
2022-11-21T18:27:46.417Z,1.2
2022-11-21T18:31:43.054Z,1.2
2022-11-21T18:35:43.204Z,1.2
2022-11-21T18:40:27.084Z,1.2
2022-11-21T18:43:43.687Z,1.2
2022-11-21T18:47:54.373Z,1.2
2022-11-21T18:51:42.651Z,1.2
2022-11-21T18:55:43.291Z,1.2
2022-11-21T18:59:44.314Z,1.2
2022-11-21T19:03:44.430Z,1.2
2022-11-21T19:07:43.000Z,1.2
2022-11-21T19:12:23.055Z,1.2
2022-11-21T19:15:44.386Z,1.2
2022-11-21T19:20:22.822Z,1.2
2022-11-21T19:23:43.283Z,1.2
2022-11-21T19:27:43.302Z,1.2
2022-11-21T19:31:45.597Z,1.2
2022-11-21T19:35:42.916Z,1.2
2022-11-21T19:39:47.662Z,1.2
2022-11-21T19:43:43.424Z,1.2
2022-11-21T19:47:43.388Z,1.2
2022-11-21T19:51:50.307Z,1.2
2022-11-21T19:55:43.045Z,1.2
2022-11-21T19:59:46.687Z,1.2
2022-11-21T20:03:43.124Z,1.2
2022-11-21T20:07:42.888Z,1.2
2022-11-21T20:11:49.471Z,1.2
2022-11-21T20:15:50.010Z,1.2
2022-11-21T20:19:47.832Z,1.2
2022-11-21T20:23:42.656Z,1.2
2022-11-21T20:27:42.748Z,1.2
2022-11-21T20:31:42.482Z,1.2
2022-11-21T20:35:43.646Z,1.2
2022-11-21T20:39:43.649Z,1.2
2022-11-21T20:45:20.387Z,1.2
2022-11-21T20:47:52.516Z,1.2
2022-11-21T20:49:51.704Z,1.2
2022-11-21T20:54:39.347Z,1.2
2022-11-21T20:55:13.158Z,1.2
2022-11-21T20:57:49.196Z,1.2
